Galveston, TX (77550)

11:54 AM CDT on April 30, 2017 (GMT -0500)
Galveston.com | | Change Station

Elev 36 ft 29.31 °N, 94.79 °W | Updated 3 seconds ago

Overcast
Overcast
66.6 °F
Feels Like 66.6 °F
N
4.7
Wind Variable Wind from WNW
Gusts 13.0 mph

Today
High -- | Low -- °F
--% Chance of Precip.
Yesterday
High -- | Low -- °F
Precip. -- in
Pressure 29.95 in
Visibility 10.0 miles
Clouds Overcast 9500 ft
Dew Point 50 °F
Humidity 55%
Rainfall 0.07 in
Snow Depth Not available.
6:37 AM 7:55 PM
Waxing Crescent, 24% visible
METAR KGLS 301652Z 31010KT 10SM OVC095 21/11 A2995 RMK AO2 SLP141 T02060111
Pressure 29.95 in
Visibility 10.0 miles
Clouds Overcast 9500 ft
Dew Point 50 °F
Humidity 55%
Rainfall 0.07 in
Snow Depth Not available.
6:37 AM 7:55 PM
Waxing Crescent, 24% visible
METAR KGLS 301652Z 31010KT 10SM OVC095 21/11 A2995 RMK AO2 SLP141 T02060111

Get Severe Weather Alerts

Thanks for signing up!

Be on the lookout for a verification email in your inbox.

You'll start receiving the daily forecast at 8 AM.

×

10-Day Weather Forecast

Almanac

Astronomy

Apr. 30, 2017 Rise Set
Actual Time
Civil Twilight
Nautical Twilight
Astronomical Twilight
Moon
Length of Visible Light
Length of Day
Tomorrow will be .
, % of the Moon is Illuminated

Today's Extremes

State Highs State Lows

Community

WunderPhotos

WunderBlog® & News

Nearby

Air Quality

  Air Quality AQ Index Pollutant
Not available.

Snow Depth

Station Depth Elevation

Earthquake Activity

City Distance Mag. Time & Date
Minimum magnitude displayed is 2.5.

Coastal Water Temperatures

Place Temperature

Stations

Nearby Weather Stations

Station Location Temp. Windchill Dew Point Humidity Wind Precip. Elev Updated Type
                   

Watches & Warnings

There are currently no watches in effect.